sensor_id;sensor_type;location;lat;lon;timestamp;temperature;humidity
6581;DHT22;3324;50.796;7.228;2023-12-07T00:01:57;4.50;99.90
6581;DHT22;3324;50.796;7.228;2023-12-07T00:04:22;4.50;99.90
6581;DHT22;3324;50.796;7.228;2023-12-07T00:06:48;4.40;99.90
6581;DHT22;3324;50.796;7.228;2023-12-07T00:09:13;4.50;99.90
6581;DHT22;3324;50.796;7.228;2023-12-07T00:11:39;4.60;99.90
6581;DHT22;3324;50.796;7.228;2023-12-07T00:14:04;4.50;99.90
6581;DHT22;3324;50.796;7.228;2023-12-07T00:16:30;4.60;99.90
6581;DHT22;3324;50.796;7.228;2023-12-07T00:18:55;4.60;99.90
6581;DHT22;3324;50.796;7.228;2023-12-07T00:21:21;4.50;99.90
6581;DHT22;3324;50.796;7.228;2023-12-07T00:23:46;4.50;99.90
6581;DHT22;3324;50.796;7.228;2023-12-07T00:26:12;4.50;99.90
6581;DHT22;3324;50.796;7.228;2023-12-07T00:28:37;4.60;99.90
6581;DHT22;3324;50.796;7.228;2023-12-07T00:31:03;4.50;99.90
6581;DHT22;3324;50.796;7.228;2023-12-07T00:33:28;4.60;99.90
6581;DHT22;3324;50.796;7.228;2023-12-07T00:35:54;4.50;99.90
6581;DHT22;3324;50.796;7.228;2023-12-07T00:38:19;4.60;99.90
6581;DHT22;3324;50.796;7.228;2023-12-07T00:40:46;4.60;99.90
6581;DHT22;3324;50.796;7.228;2023-12-07T00:43:11;4.60;99.90
6581;DHT22;3324;50.796;7.228;2023-12-07T00:45:37;4.60;99.90
6581;DHT22;3324;50.796;7.228;2023-12-07T00:48:03;4.60;99.90
6581;DHT22;3324;50.796;7.228;2023-12-07T00:50:28;4.60;99.90
6581;DHT22;3324;50.796;7.228;2023-12-07T00:52:54;4.70;99.90
6581;DHT22;3324;50.796;7.228;2023-12-07T00:55:20;4.60;99.90
6581;DHT22;3324;50.796;7.228;2023-12-07T00:57:45;4.60;99.90
6581;DHT22;3324;50.796;7.228;2023-12-07T01:00:11;4.50;99.90
6581;DHT22;3324;50.796;7.228;2023-12-07T01:02:36;4.60;99.90
6581;DHT22;3324;50.796;7.228;2023-12-07T01:05:02;4.60;99.90
6581;DHT22;3324;50.796;7.228;2023-12-07T01:07:27;4.60;99.90
6581;DHT22;3324;50.796;7.228;2023-12-07T01:09:53;4.60;99.90
6581;DHT22;3324;50.796;7.228;2023-12-07T01:12:18;4.60;99.90
6581;DHT22;3324;50.796;7.228;2023-12-07T01:14:44;4.60;99.90
6581;DHT22;3324;50.796;7.228;2023-12-07T01:17:09;4.70;99.90
6581;DHT22;3324;50.796;7.228;2023-12-07T01:19:35;4.60;99.90
6581;DHT22;3324;50.796;7.228;2023-12-07T01:22:00;4.60;99.90
6581;DHT22;3324;50.796;7.228;2023-12-07T01:24:26;4.60;99.90
6581;DHT22;3324;50.796;7.228;2023-12-07T01:26:51;4.70;99.90
6581;DHT22;3324;50.796;7.228;2023-12-07T01:29:17;4.70;99.90
6581;DHT22;3324;50.796;7.228;2023-12-07T01:31:43;4.70;99.90
6581;DHT22;3324;50.796;7.228;2023-12-07T01:34:08;4.60;99.90
6581;DHT22;3324;50.796;7.228;2023-12-07T01:36:34;4.60;99.90
6581;DHT22;3324;50.796;7.228;2023-12-07T01:38:59;4.60;99.90
6581;DHT22;3324;50.796;7.228;2023-12-07T01:41:25;4.70;99.90
6581;DHT22;3324;50.796;7.228;2023-12-07T01:43:51;4.70;99.90
6581;DHT22;3324;50.796;7.228;2023-12-07T01:46:16;4.70;99.90
6581;DHT22;3324;50.796;7.228;2023-12-07T01:48:42;4.60;99.90
6581;DHT22;3324;50.796;7.228;2023-12-07T01:51:08;4.60;99.90
6581;DHT22;3324;50.796;7.228;2023-12-07T01:53:34;4.60;99.90
6581;DHT22;3324;50.796;7.228;2023-12-07T01:55:59;4.70;99.90
6581;DHT22;3324;50.796;7.228;2023-12-07T01:58:25;4.60;99.90
6581;DHT22;3324;50.796;7.228;2023-12-07T02:00:51;4.70;99.90
6581;DHT22;3324;50.796;7.228;2023-12-07T02:03:16;4.70;99.90
6581;DHT22;3324;50.796;7.228;2023-12-07T02:05:43;4.70;99.90
6581;DHT22;3324;50.796;7.228;2023-12-07T02:08:11;4.70;99.90
6581;DHT22;3324;50.796;7.228;2023-12-07T02:10:36;4.60;99.90
6581;DHT22;3324;50.796;7.228;2023-12-07T02:13:02;4.70;99.90
6581;DHT22;3324;50.796;7.228;2023-12-07T02:15:28;4.70;99.90
6581;DHT22;3324;50.796;7.228;2023-12-07T02:20:29;4.70;99.90
6581;DHT22;3324;50.796;7.228;2023-12-07T02:22:59;4.70;99.90
6581;DHT22;3324;50.796;7.228;2023-12-07T02:25:27;4.80;99.90
6581;DHT22;3324;50.796;7.228;2023-12-07T02:27:54;4.80;99.90
6581;DHT22;3324;50.796;7.228;2023-12-07T02:30:20;4.80;99.90
6581;DHT22;3324;50.796;7.228;2023-12-07T02:32:45;4.80;99.90
6581;DHT22;3324;50.796;7.228;2023-12-07T02:35:11;4.70;99.90
6581;DHT22;3324;50.796;7.228;2023-12-07T02:37:50;4.70;99.90
6581;DHT22;3324;50.796;7.228;2023-12-07T02:40:23;4.70;99.90
6581;DHT22;3324;50.796;7.228;2023-12-07T02:42:49;4.70;99.90
6581;DHT22;3324;50.796;7.228;2023-12-07T02:45:15;4.60;99.90
6581;DHT22;3324;50.796;7.228;2023-12-07T02:47:40;4.60;99.90
6581;DHT22;3324;50.796;7.228;2023-12-07T02:50:06;4.60;99.90
6581;DHT22;3324;50.796;7.228;2023-12-07T02:52:32;4.60;99.90
6581;DHT22;3324;50.796;7.228;2023-12-07T02:54:58;4.50;99.90
6581;DHT22;3324;50.796;7.228;2023-12-07T02:57:24;4.50;99.90
6581;DHT22;3324;50.796;7.228;2023-12-07T02:59:49;4.50;99.90
6581;DHT22;3324;50.796;7.228;2023-12-07T03:02:15;4.50;99.90
6581;DHT22;3324;50.796;7.228;2023-12-07T03:07:43;4.50;99.90
6581;DHT22;3324;50.796;7.228;2023-12-07T03:10:09;4.60;99.90
6581;DHT22;3324;50.796;7.228;2023-12-07T03:12:34;4.60;99.90
6581;DHT22;3324;50.796;7.228;2023-12-07T03:15:00;4.60;99.90
6581;DHT22;3324;50.796;7.228;2023-12-07T03:17:25;4.60;99.90
6581;DHT22;3324;50.796;7.228;2023-12-07T03:19:51;4.60;99.90
6581;DHT22;3324;50.796;7.228;2023-12-07T03:22:16;4.70;99.90
6581;DHT22;3324;50.796;7.228;2023-12-07T03:24:44;4.70;99.90
6581;DHT22;3324;50.796;7.228;2023-12-07T03:27:10;4.70;99.90
6581;DHT22;3324;50.796;7.228;2023-12-07T03:29:35;4.70;99.90
6581;DHT22;3324;50.796;7.228;2023-12-07T03:32:01;4.70;99.90
6581;DHT22;3324;50.796;7.228;2023-12-07T03:34:26;4.70;99.90
6581;DHT22;3324;50.796;7.228;2023-12-07T03:36:52;4.70;99.90
6581;DHT22;3324;50.796;7.228;2023-12-07T03:39:17;4.60;99.90
6581;DHT22;3324;50.796;7.228;2023-12-07T03:41:51;4.70;99.90
6581;DHT22;3324;50.796;7.228;2023-12-07T03:44:17;4.60;99.90
6581;DHT22;3324;50.796;7.228;2023-12-07T03:46:42;4.60;99.90
6581;DHT22;3324;50.796;7.228;2023-12-07T03:49:08;4.60;99.90
6581;DHT22;3324;50.796;7.228;2023-12-07T03:51:33;4.70;99.90
6581;DHT22;3324;50.796;7.228;2023-12-07T03:54:01;4.60;99.90
6581;DHT22;3324;50.796;7.228;2023-12-07T03:56:28;4.70;99.90
6581;DHT22;3324;50.796;7.228;2023-12-07T03:58:53;4.70;99.90
6581;DHT22;3324;50.796;7.228;2023-12-07T04:01:23;4.70;99.90
6581;DHT22;3324;50.796;7.228;2023-12-07T04:03:49;4.80;99.90
6581;DHT22;3324;50.796;7.228;2023-12-07T04:06:14;4.90;99.90
6581;DHT22;3324;50.796;7.228;2023-12-07T04:08:40;4.90;99.90
6581;DHT22;3324;50.796;7.228;2023-12-07T04:11:05;4.90;99.90
6581;DHT22;3324;50.796;7.228;2023-12-07T04:13:31;4.80;99.90
6581;DHT22;3324;50.796;7.228;2023-12-07T04:15:56;5.00;99.90
6581;DHT22;3324;50.796;7.228;2023-12-07T04:18:22;5.00;99.90
6581;DHT22;3324;50.796;7.228;2023-12-07T04:20:47;4.90;99.90
6581;DHT22;3324;50.796;7.228;2023-12-07T04:23:13;4.80;99.90
6581;DHT22;3324;50.796;7.228;2023-12-07T04:25:38;4.70;99.90
6581;DHT22;3324;50.796;7.228;2023-12-07T04:28:04;4.70;99.90
6581;DHT22;3324;50.796;7.228;2023-12-07T04:30:29;4.70;99.90
6581;DHT22;3324;50.796;7.228;2023-12-07T04:32:54;4.70;99.90
6581;DHT22;3324;50.796;7.228;2023-12-07T04:35:20;4.70;99.90
6581;DHT22;3324;50.796;7.228;2023-12-07T04:37:45;4.70;99.90
6581;DHT22;3324;50.796;7.228;2023-12-07T04:40:11;4.70;99.90
6581;DHT22;3324;50.796;7.228;2023-12-07T04:42:36;4.70;99.90
6581;DHT22;3324;50.796;7.228;2023-12-07T04:45:02;4.70;99.90
6581;DHT22;3324;50.796;7.228;2023-12-07T04:47:28;4.70;99.90
6581;DHT22;3324;50.796;7.228;2023-12-07T04:49:53;4.70;99.90
6581;DHT22;3324;50.796;7.228;2023-12-07T04:52:19;4.70;99.90
6581;DHT22;3324;50.796;7.228;2023-12-07T04:54:44;4.60;99.90
6581;DHT22;3324;50.796;7.228;2023-12-07T04:57:10;4.60;99.90
6581;DHT22;3324;50.796;7.228;2023-12-07T04:59:35;4.50;99.90
6581;DHT22;3324;50.796;7.228;2023-12-07T05:02:01;4.60;99.90
6581;DHT22;3324;50.796;7.228;2023-12-07T05:04:27;4.50;99.90
6581;DHT22;3324;50.796;7.228;2023-12-07T05:06:52;4.50;99.90
6581;DHT22;3324;50.796;7.228;2023-12-07T05:09:18;4.50;99.90
6581;DHT22;3324;50.796;7.228;2023-12-07T05:11:43;4.50;99.90
6581;DHT22;3324;50.796;7.228;2023-12-07T05:14:11;4.50;99.90
6581;DHT22;3324;50.796;7.228;2023-12-07T05:16:36;4.40;99.90
6581;DHT22;3324;50.796;7.228;2023-12-07T05:19:01;4.40;99.90
6581;DHT22;3324;50.796;7.228;2023-12-07T05:21:27;4.40;99.90
6581;DHT22;3324;50.796;7.228;2023-12-07T05:23:53;4.40;99.90
6581;DHT22;3324;50.796;7.228;2023-12-07T05:26:18;4.30;99.90
6581;DHT22;3324;50.796;7.228;2023-12-07T05:28:44;4.30;99.90
6581;DHT22;3324;50.796;7.228;2023-12-07T05:31:15;4.30;99.90
6581;DHT22;3324;50.796;7.228;2023-12-07T05:33:40;4.30;99.90
6581;DHT22;3324;50.796;7.228;2023-12-07T05:36:06;4.30;99.90
6581;DHT22;3324;50.796;7.228;2023-12-07T05:38:31;4.40;99.90
6581;DHT22;3324;50.796;7.228;2023-12-07T05:40:57;4.40;99.90
6581;DHT22;3324;50.796;7.228;2023-12-07T05:43:22;4.50;99.90
6581;DHT22;3324;50.796;7.228;2023-12-07T05:45:48;4.60;99.90
6581;DHT22;3324;50.796;7.228;2023-12-07T05:48:13;4.40;99.90
6581;DHT22;3324;50.796;7.228;2023-12-07T05:50:39;4.30;99.90
6581;DHT22;3324;50.796;7.228;2023-12-07T05:53:05;4.30;99.90
6581;DHT22;3324;50.796;7.228;2023-12-07T05:55:31;4.30;99.90
6581;DHT22;3324;50.796;7.228;2023-12-07T05:57:57;4.20;99.90
6581;DHT22;3324;50.796;7.228;2023-12-07T06:00:22;4.20;99.90
6581;DHT22;3324;50.796;7.228;2023-12-07T06:02:48;4.30;99.90
6581;DHT22;3324;50.796;7.228;2023-12-07T06:05:14;4.20;99.90
6581;DHT22;3324;50.796;7.228;2023-12-07T06:07:40;4.10;99.90
6581;DHT22;3324;50.796;7.228;2023-12-07T06:10:06;4.20;99.90
6581;DHT22;3324;50.796;7.228;2023-12-07T06:12:32;4.10;99.90
6581;DHT22;3324;50.796;7.228;2023-12-07T06:14:58;4.00;99.90
6581;DHT22;3324;50.796;7.228;2023-12-07T06:17:23;3.90;99.90
6581;DHT22;3324;50.796;7.228;2023-12-07T06:19:49;3.90;99.90
6581;DHT22;3324;50.796;7.228;2023-12-07T06:22:14;3.90;99.90
6581;DHT22;3324;50.796;7.228;2023-12-07T06:24:39;3.80;99.90
6581;DHT22;3324;50.796;7.228;2023-12-07T06:27:05;3.80;99.90
6581;DHT22;3324;50.796;7.228;2023-12-07T06:29:31;3.80;99.90
6581;DHT22;3324;50.796;7.228;2023-12-07T06:31:57;3.70;99.90
6581;DHT22;3324;50.796;7.228;2023-12-07T06:34:22;3.60;99.90
6581;DHT22;3324;50.796;7.228;2023-12-07T06:36:48;3.50;99.90
6581;DHT22;3324;50.796;7.228;2023-12-07T06:39:13;3.40;99.90
6581;DHT22;3324;50.796;7.228;2023-12-07T06:41:42;3.40;99.90
6581;DHT22;3324;50.796;7.228;2023-12-07T06:44:07;3.30;99.90
6581;DHT22;3324;50.796;7.228;2023-12-07T06:46:33;3.20;99.90
6581;DHT22;3324;50.796;7.228;2023-12-07T06:48:59;3.20;99.90
6581;DHT22;3324;50.796;7.228;2023-12-07T06:51:25;3.10;99.90
6581;DHT22;3324;50.796;7.228;2023-12-07T06:53:50;2.90;99.90
6581;DHT22;3324;50.796;7.228;2023-12-07T06:56:16;3.00;99.90
6581;DHT22;3324;50.796;7.228;2023-12-07T06:58:42;3.00;99.90
6581;DHT22;3324;50.796;7.228;2023-12-07T07:01:07;2.80;99.90
6581;DHT22;3324;50.796;7.228;2023-12-07T07:03:33;2.80;99.90
6581;DHT22;3324;50.796;7.228;2023-12-07T07:05:58;2.80;99.90
6581;DHT22;3324;50.796;7.228;2023-12-07T07:08:25;2.80;99.90
6581;DHT22;3324;50.796;7.228;2023-12-07T07:10:50;2.80;99.90
6581;DHT22;3324;50.796;7.228;2023-12-07T07:13:16;2.70;99.90
6581;DHT22;3324;50.796;7.228;2023-12-07T07:15:42;2.70;99.90
6581;DHT22;3324;50.796;7.228;2023-12-07T07:18:11;2.60;99.90
6581;DHT22;3324;50.796;7.228;2023-12-07T07:20:36;2.70;99.90
6581;DHT22;3324;50.796;7.228;2023-12-07T07:23:02;2.60;99.90
6581;DHT22;3324;50.796;7.228;2023-12-07T07:25:27;2.50;99.90
6581;DHT22;3324;50.796;7.228;2023-12-07T07:27:53;2.50;99.90
6581;DHT22;3324;50.796;7.228;2023-12-07T07:30:20;2.40;99.90
6581;DHT22;3324;50.796;7.228;2023-12-07T07:32:45;2.40;99.90
6581;DHT22;3324;50.796;7.228;2023-12-07T07:35:11;2.50;99.90
6581;DHT22;3324;50.796;7.228;2023-12-07T07:37:40;2.50;99.90
6581;DHT22;3324;50.796;7.228;2023-12-07T07:40:07;2.50;99.90
6581;DHT22;3324;50.796;7.228;2023-12-07T07:42:33;2.60;99.90
6581;DHT22;3324;50.796;7.228;2023-12-07T07:44:58;2.60;99.90
6581;DHT22;3324;50.796;7.228;2023-12-07T07:47:24;2.70;99.90
6581;DHT22;3324;50.796;7.228;2023-12-07T07:49:49;2.70;99.90
6581;DHT22;3324;50.796;7.228;2023-12-07T07:52:15;2.60;99.90
6581;DHT22;3324;50.796;7.228;2023-12-07T07:54:40;2.70;99.90
6581;DHT22;3324;50.796;7.228;2023-12-07T07:57:06;2.70;99.90
6581;DHT22;3324;50.796;7.228;2023-12-07T07:59:31;2.70;99.90
6581;DHT22;3324;50.796;7.228;2023-12-07T08:01:57;2.70;99.90
6581;DHT22;3324;50.796;7.228;2023-12-07T08:04:22;2.70;99.90
6581;DHT22;3324;50.796;7.228;2023-12-07T08:06:48;2.70;99.90
6581;DHT22;3324;50.796;7.228;2023-12-07T08:09:13;2.70;99.90
6581;DHT22;3324;50.796;7.228;2023-12-07T08:11:39;2.70;99.90
6581;DHT22;3324;50.796;7.228;2023-12-07T08:14:05;2.70;99.90
6581;DHT22;3324;50.796;7.228;2023-12-07T08:16:30;2.70;99.90
6581;DHT22;3324;50.796;7.228;2023-12-07T08:18:55;2.70;99.90
6581;DHT22;3324;50.796;7.228;2023-12-07T08:21:21;2.70;99.90
6581;DHT22;3324;50.796;7.228;2023-12-07T08:23:47;2.70;99.90
6581;DHT22;3324;50.796;7.228;2023-12-07T08:26:13;2.80;99.90
6581;DHT22;3324;50.796;7.228;2023-12-07T08:28:39;2.80;99.90
6581;DHT22;3324;50.796;7.228;2023-12-07T08:31:05;2.80;99.90
6581;DHT22;3324;50.796;7.228;2023-12-07T08:33:31;2.80;99.90
6581;DHT22;3324;50.796;7.228;2023-12-07T08:35:59;2.80;99.90
6581;DHT22;3324;50.796;7.228;2023-12-07T08:38:25;2.80;99.90
6581;DHT22;3324;50.796;7.228;2023-12-07T08:40:50;2.80;99.90
6581;DHT22;3324;50.796;7.228;2023-12-07T08:43:18;2.90;99.90
6581;DHT22;3324;50.796;7.228;2023-12-07T08:45:43;2.90;99.90
6581;DHT22;3324;50.796;7.228;2023-12-07T08:48:09;2.90;99.90
6581;DHT22;3324;50.796;7.228;2023-12-07T08:50:34;2.90;99.90
6581;DHT22;3324;50.796;7.228;2023-12-07T08:53:00;3.00;99.90
6581;DHT22;3324;50.796;7.228;2023-12-07T08:55:25;3.00;99.90
6581;DHT22;3324;50.796;7.228;2023-12-07T08:57:52;3.00;99.90
6581;DHT22;3324;50.796;7.228;2023-12-07T09:00:18;3.10;99.90
6581;DHT22;3324;50.796;7.228;2023-12-07T09:02:49;3.00;99.90
6581;DHT22;3324;50.796;7.228;2023-12-07T09:05:14;3.10;99.90
6581;DHT22;3324;50.796;7.228;2023-12-07T09:07:40;3.10;99.90
6581;DHT22;3324;50.796;7.228;2023-12-07T09:10:06;3.10;99.90
6581;DHT22;3324;50.796;7.228;2023-12-07T09:12:32;3.10;99.90
6581;DHT22;3324;50.796;7.228;2023-12-07T09:14:57;3.10;99.90
6581;DHT22;3324;50.796;7.228;2023-12-07T09:17:23;3.10;99.90
6581;DHT22;3324;50.796;7.228;2023-12-07T09:19:48;3.10;99.90
6581;DHT22;3324;50.796;7.228;2023-12-07T09:22:13;3.10;99.90
6581;DHT22;3324;50.796;7.228;2023-12-07T09:24:41;3.10;99.90
6581;DHT22;3324;50.796;7.228;2023-12-07T09:27:07;3.20;99.90
6581;DHT22;3324;50.796;7.228;2023-12-07T09:29:32;3.30;99.90
6581;DHT22;3324;50.796;7.228;2023-12-07T09:31:58;3.30;99.90
6581;DHT22;3324;50.796;7.228;2023-12-07T09:34:23;3.30;99.90
6581;DHT22;3324;50.796;7.228;2023-12-07T09:36:48;3.40;99.90
6581;DHT22;3324;50.796;7.228;2023-12-07T09:39:14;3.50;99.90
6581;DHT22;3324;50.796;7.228;2023-12-07T09:41:39;3.50;99.90
6581;DHT22;3324;50.796;7.228;2023-12-07T09:44:06;3.50;99.90
6581;DHT22;3324;50.796;7.228;2023-12-07T09:46:32;3.50;99.90
6581;DHT22;3324;50.796;7.228;2023-12-07T09:48:58;3.60;99.90
6581;DHT22;3324;50.796;7.228;2023-12-07T09:51:23;3.70;99.90
6581;DHT22;3324;50.796;7.228;2023-12-07T09:53:49;3.60;99.90
6581;DHT22;3324;50.796;7.228;2023-12-07T09:56:16;3.70;99.90
6581;DHT22;3324;50.796;7.228;2023-12-07T09:58:42;3.70;99.90
6581;DHT22;3324;50.796;7.228;2023-12-07T10:01:07;3.80;99.90
6581;DHT22;3324;50.796;7.228;2023-12-07T10:03:33;3.80;99.90
6581;DHT22;3324;50.796;7.228;2023-12-07T10:05:59;3.80;99.90
6581;DHT22;3324;50.796;7.228;2023-12-07T10:08:28;3.80;99.90
6581;DHT22;3324;50.796;7.228;2023-12-07T10:11:07;3.80;99.90
6581;DHT22;3324;50.796;7.228;2023-12-07T10:13:33;3.80;99.90
6581;DHT22;3324;50.796;7.228;2023-12-07T10:18:35;3.90;99.90
6581;DHT22;3324;50.796;7.228;2023-12-07T10:21:00;3.90;99.90
6581;DHT22;3324;50.796;7.228;2023-12-07T10:23:26;3.90;99.90
6581;DHT22;3324;50.796;7.228;2023-12-07T10:25:52;3.90;99.90
6581;DHT22;3324;50.796;7.228;2023-12-07T10:28:18;4.00;99.90
6581;DHT22;3324;50.796;7.228;2023-12-07T10:30:45;4.00;99.90
6581;DHT22;3324;50.796;7.228;2023-12-07T10:33:11;4.00;99.90
6581;DHT22;3324;50.796;7.228;2023-12-07T10:35:41;4.00;99.90
6581;DHT22;3324;50.796;7.228;2023-12-07T10:38:07;4.10;99.90
6581;DHT22;3324;50.796;7.228;2023-12-07T10:40:32;4.10;99.90
6581;DHT22;3324;50.796;7.228;2023-12-07T10:42:58;4.10;99.90
6581;DHT22;3324;50.796;7.228;2023-12-07T10:45:29;4.10;99.90
6581;DHT22;3324;50.796;7.228;2023-12-07T10:47:54;4.20;99.90
6581;DHT22;3324;50.796;7.228;2023-12-07T10:50:23;4.10;99.90
6581;DHT22;3324;50.796;7.228;2023-12-07T10:52:51;4.10;99.90
6581;DHT22;3324;50.796;7.228;2023-12-07T10:55:22;4.10;99.90
6581;DHT22;3324;50.796;7.228;2023-12-07T10:57:54;4.10;99.90
6581;DHT22;3324;50.796;7.228;2023-12-07T11:00:21;4.10;99.90
6581;DHT22;3324;50.796;7.228;2023-12-07T11:02:50;4.10;99.90
6581;DHT22;3324;50.796;7.228;2023-12-07T11:05:17;4.10;99.90
6581;DHT22;3324;50.796;7.228;2023-12-07T11:07:57;4.20;99.90
6581;DHT22;3324;50.796;7.228;2023-12-07T11:10:26;4.30;99.90
6581;DHT22;3324;50.796;7.228;2023-12-07T11:12:56;4.40;99.90
6581;DHT22;3324;50.796;7.228;2023-12-07T11:15:23;4.50;99.90
6581;DHT22;3324;50.796;7.228;2023-12-07T11:17:52;4.60;99.90
6581;DHT22;3324;50.796;7.228;2023-12-07T11:20:19;4.60;99.90
6581;DHT22;3324;50.796;7.228;2023-12-07T11:22:45;4.50;99.90
6581;DHT22;3324;50.796;7.228;2023-12-07T11:25:12;4.60;99.90
6581;DHT22;3324;50.796;7.228;2023-12-07T11:27:37;4.50;99.90
6581;DHT22;3324;50.796;7.228;2023-12-07T11:30:03;4.60;99.90
6581;DHT22;3324;50.796;7.228;2023-12-07T11:32:29;4.60;99.90
6581;DHT22;3324;50.796;7.228;2023-12-07T11:34:54;4.60;99.90
6581;DHT22;3324;50.796;7.228;2023-12-07T11:37:20;4.60;99.90
6581;DHT22;3324;50.796;7.228;2023-12-07T11:39:45;4.60;99.90
6581;DHT22;3324;50.796;7.228;2023-12-07T11:42:11;4.50;99.90
6581;DHT22;3324;50.796;7.228;2023-12-07T11:44:38;4.50;99.90
6581;DHT22;3324;50.796;7.228;2023-12-07T11:47:04;4.50;99.90
6581;DHT22;3324;50.796;7.228;2023-12-07T11:49:30;4.60;99.90
6581;DHT22;3324;50.796;7.228;2023-12-07T11:51:57;4.70;99.90
6581;DHT22;3324;50.796;7.228;2023-12-07T11:54:22;4.80;99.90
6581;DHT22;3324;50.796;7.228;2023-12-07T11:56:54;4.80;99.90
6581;DHT22;3324;50.796;7.228;2023-12-07T11:59:20;4.70;99.90
6581;DHT22;3324;50.796;7.228;2023-12-07T12:01:46;4.70;99.90
6581;DHT22;3324;50.796;7.228;2023-12-07T12:04:12;4.80;99.90
6581;DHT22;3324;50.796;7.228;2023-12-07T12:06:37;4.80;99.90
6581;DHT22;3324;50.796;7.228;2023-12-07T12:09:03;4.80;99.90
6581;DHT22;3324;50.796;7.228;2023-12-07T12:11:28;4.80;99.90
6581;DHT22;3324;50.796;7.228;2023-12-07T12:13:55;4.80;99.90
6581;DHT22;3324;50.796;7.228;2023-12-07T12:16:20;4.90;99.90
6581;DHT22;3324;50.796;7.228;2023-12-07T12:18:46;4.90;99.90
6581;DHT22;3324;50.796;7.228;2023-12-07T12:21:11;4.90;99.90
6581;DHT22;3324;50.796;7.228;2023-12-07T12:23:37;4.90;99.90
6581;DHT22;3324;50.796;7.228;2023-12-07T12:26:05;5.00;99.90
6581;DHT22;3324;50.796;7.228;2023-12-07T12:28:31;5.00;99.90
6581;DHT22;3324;50.796;7.228;2023-12-07T12:30:57;5.00;99.90
6581;DHT22;3324;50.796;7.228;2023-12-07T12:33:23;5.10;99.90
6581;DHT22;3324;50.796;7.228;2023-12-07T12:36:02;5.10;99.90
6581;DHT22;3324;50.796;7.228;2023-12-07T12:38:28;5.10;99.90
6581;DHT22;3324;50.796;7.228;2023-12-07T12:40:54;5.10;99.90
6581;DHT22;3324;50.796;7.228;2023-12-07T12:43:19;5.20;99.90
6581;DHT22;3324;50.796;7.228;2023-12-07T12:45:44;5.20;99.90
6581;DHT22;3324;50.796;7.228;2023-12-07T12:48:10;5.20;99.90
6581;DHT22;3324;50.796;7.228;2023-12-07T12:50:37;5.30;99.90
6581;DHT22;3324;50.796;7.228;2023-12-07T12:53:03;5.40;99.90
6581;DHT22;3324;50.796;7.228;2023-12-07T12:55:36;5.40;99.90
6581;DHT22;3324;50.796;7.228;2023-12-07T12:58:01;5.50;99.90
6581;DHT22;3324;50.796;7.228;2023-12-07T13:00:30;5.50;99.90
6581;DHT22;3324;50.796;7.228;2023-12-07T13:02:56;5.50;99.90
6581;DHT22;3324;50.796;7.228;2023-12-07T13:05:22;5.60;99.90
6581;DHT22;3324;50.796;7.228;2023-12-07T13:07:48;5.60;99.90
6581;DHT22;3324;50.796;7.228;2023-12-07T13:10:16;5.60;99.90
6581;DHT22;3324;50.796;7.228;2023-12-07T13:12:42;5.50;99.90
6581;DHT22;3324;50.796;7.228;2023-12-07T13:15:08;5.50;99.90
6581;DHT22;3324;50.796;7.228;2023-12-07T13:17:34;5.60;99.90
6581;DHT22;3324;50.796;7.228;2023-12-07T13:20:00;5.60;99.90
6581;DHT22;3324;50.796;7.228;2023-12-07T13:22:25;5.50;99.90
6581;DHT22;3324;50.796;7.228;2023-12-07T13:24:50;5.50;99.90
6581;DHT22;3324;50.796;7.228;2023-12-07T13:27:16;5.50;99.90
6581;DHT22;3324;50.796;7.228;2023-12-07T13:29:43;5.50;99.90
6581;DHT22;3324;50.796;7.228;2023-12-07T13:32:08;5.40;99.90
6581;DHT22;3324;50.796;7.228;2023-12-07T13:34:35;5.40;99.90
6581;DHT22;3324;50.796;7.228;2023-12-07T13:37:00;5.40;99.90
6581;DHT22;3324;50.796;7.228;2023-12-07T13:39:26;5.40;99.90
6581;DHT22;3324;50.796;7.228;2023-12-07T13:41:55;5.40;99.90
6581;DHT22;3324;50.796;7.228;2023-12-07T13:44:21;5.40;99.90
6581;DHT22;3324;50.796;7.228;2023-12-07T13:46:46;5.30;99.90
6581;DHT22;3324;50.796;7.228;2023-12-07T13:49:12;5.30;99.90
6581;DHT22;3324;50.796;7.228;2023-12-07T13:51:39;5.20;99.90
6581;DHT22;3324;50.796;7.228;2023-12-07T13:54:05;5.20;99.90
6581;DHT22;3324;50.796;7.228;2023-12-07T13:56:30;5.20;99.90
6581;DHT22;3324;50.796;7.228;2023-12-07T13:58:56;5.20;99.90
6581;DHT22;3324;50.796;7.228;2023-12-07T14:01:21;5.10;99.90
6581;DHT22;3324;50.796;7.228;2023-12-07T14:03:47;5.10;99.90
6581;DHT22;3324;50.796;7.228;2023-12-07T14:06:23;5.10;99.90
6581;DHT22;3324;50.796;7.228;2023-12-07T14:11:55;5.00;99.90
6581;DHT22;3324;50.796;7.228;2023-12-07T14:14:20;5.00;99.90
6581;DHT22;3324;50.796;7.228;2023-12-07T14:16:46;5.00;99.90
6581;DHT22;3324;50.796;7.228;2023-12-07T14:19:11;4.90;99.90
6581;DHT22;3324;50.796;7.228;2023-12-07T14:21:39;4.80;99.90
6581;DHT22;3324;50.796;7.228;2023-12-07T14:27:09;4.70;99.90
6581;DHT22;3324;50.796;7.228;2023-12-07T14:29:35;4.80;99.90
6581;DHT22;3324;50.796;7.228;2023-12-07T14:32:00;4.70;99.90
6581;DHT22;3324;50.796;7.228;2023-12-07T14:34:26;4.70;99.90
6581;DHT22;3324;50.796;7.228;2023-12-07T14:36:52;4.60;99.90
6581;DHT22;3324;50.796;7.228;2023-12-07T14:39:18;4.60;99.90
6581;DHT22;3324;50.796;7.228;2023-12-07T14:41:44;4.60;99.90
6581;DHT22;3324;50.796;7.228;2023-12-07T14:44:15;4.60;99.90
6581;DHT22;3324;50.796;7.228;2023-12-07T15:04:40;4.20;99.90
6581;DHT22;3324;50.796;7.228;2023-12-07T15:10:30;4.10;99.90
6581;DHT22;3324;50.796;7.228;2023-12-07T15:15:59;4.00;99.90
6581;DHT22;3324;50.796;7.228;2023-12-07T15:18:24;4.00;99.90
6581;DHT22;3324;50.796;7.228;2023-12-07T15:20:54;3.90;99.90
6581;DHT22;3324;50.796;7.228;2023-12-07T15:23:19;3.90;99.90
6581;DHT22;3324;50.796;7.228;2023-12-07T15:25:45;3.80;99.90
6581;DHT22;3324;50.796;7.228;2023-12-07T15:28:10;3.80;99.90
6581;DHT22;3324;50.796;7.228;2023-12-07T15:30:39;3.70;99.90
6581;DHT22;3324;50.796;7.228;2023-12-07T15:33:05;3.70;99.90
6581;DHT22;3324;50.796;7.228;2023-12-07T15:35:30;3.70;99.90
6581;DHT22;3324;50.796;7.228;2023-12-07T15:37:56;3.70;99.90
6581;DHT22;3324;50.796;7.228;2023-12-07T15:40:23;3.60;99.90
6581;DHT22;3324;50.796;7.228;2023-12-07T15:42:49;3.60;99.90
6581;DHT22;3324;50.796;7.228;2023-12-07T15:45:14;3.50;99.90
6581;DHT22;3324;50.796;7.228;2023-12-07T15:47:40;3.40;99.90
6581;DHT22;3324;50.796;7.228;2023-12-07T15:50:05;3.40;99.90
6581;DHT22;3324;50.796;7.228;2023-12-07T15:52:31;3.30;99.90
6581;DHT22;3324;50.796;7.228;2023-12-07T15:54:57;3.30;99.90
6581;DHT22;3324;50.796;7.228;2023-12-07T15:57:22;3.30;99.90
6581;DHT22;3324;50.796;7.228;2023-12-07T15:59:48;3.30;99.90
6581;DHT22;3324;50.796;7.228;2023-12-07T16:02:13;3.40;99.90
6581;DHT22;3324;50.796;7.228;2023-12-07T16:04:40;3.20;99.90
6581;DHT22;3324;50.796;7.228;2023-12-07T16:07:05;3.20;99.90
6581;DHT22;3324;50.796;7.228;2023-12-07T16:09:31;3.20;99.90
6581;DHT22;3324;50.796;7.228;2023-12-07T16:11:58;3.20;99.90
6581;DHT22;3324;50.796;7.228;2023-12-07T16:14:24;3.20;99.90
6581;DHT22;3324;50.796;7.228;2023-12-07T16:16:49;3.20;99.90
6581;DHT22;3324;50.796;7.228;2023-12-07T16:19:15;3.20;99.90
6581;DHT22;3324;50.796;7.228;2023-12-07T16:21:41;3.20;99.90
6581;DHT22;3324;50.796;7.228;2023-12-07T16:24:08;3.10;99.90
6581;DHT22;3324;50.796;7.228;2023-12-07T16:26:36;3.10;99.90
6581;DHT22;3324;50.796;7.228;2023-12-07T16:29:02;3.10;99.90
6581;DHT22;3324;50.796;7.228;2023-12-07T16:31:27;3.00;99.90
6581;DHT22;3324;50.796;7.228;2023-12-07T16:33:53;3.00;99.90
6581;DHT22;3324;50.796;7.228;2023-12-07T16:36:19;3.00;99.90
6581;DHT22;3324;50.796;7.228;2023-12-07T16:38:44;3.00;99.90
6581;DHT22;3324;50.796;7.228;2023-12-07T16:41:10;3.00;99.90
6581;DHT22;3324;50.796;7.228;2023-12-07T16:43:36;3.00;99.90
6581;DHT22;3324;50.796;7.228;2023-12-07T16:46:02;3.10;99.90
6581;DHT22;3324;50.796;7.228;2023-12-07T16:48:29;3.00;99.90